Loging...

KPDC, Korea Polar Data Center

Korea Polar Data Center Scientific observations and results from Antarctica shall
be exchanged and made freely available

Keyword Search

Advanced Search

Search 22,638 data out of 28,369

Metadata Search Results1
No. Title Reg. Date
301 [KOPRI-KPDC-00000847]ARAON gravity meter data in Arctic cruise, 2012 2017-10-01
302 [KOPRI-KPDC-00000842]ARAON gravity meter data in Arctic cruise, 2017 2017-10-01
303 [KOPRI-KPDC-00000849]ARAON gravity meter data in Arctic cruise, 2010 2017-10-01
304 [KOPRI-KPDC-00000845]ARAON gravity meter data in Arctic cruise, 2014 2017-10-01
305 [KOPRI-KPDC-00000846]ARAON gravity meter data in Arctic cruise, 2013 2017-10-01
306 [KOPRI-KPDC-00000843]ARAON gravity meter data in Arctic cruise, 2016 2017-10-01
307 [KOPRI-KPDC-00000771]Italian Seismic Line 2017 2017-09-29
308 [KOPRI-KPDC-00000774]ANA07C Multi-Channel Seismic Survey Lines 2017-09-29
309 [KOPRI-KPDC-00000938]Sea Ice Concentrations from Nimbus-7 SMMR and DMSP SSM/I-SSMIS Passive Microwave Data, Version 1 2017-09-27
310 [KOPRI-KPDC-00000937]Sea Ice Concentrations from Nimbus-7 SMMR and DMSP SSM/I-SSMIS Passive Microwave Data, Version 1 2017-09-27
311 [KOPRI-KPDC-00000936]Sea Ice Concentrations from Nimbus-7 SMMR and DMSP SSM/I-SSMIS Passive Microwave Data, Version 1 2017-09-27
312 [KOPRI-KPDC-00000935]Sea Ice Concentrations from Nimbus-7 SMMR and DMSP SSM/I-SSMIS Passive Microwave Data, Version 1 2017-09-27
313 [KOPRI-KPDC-00000934]Sea Ice Concentrations from Nimbus-7 SMMR and DMSP SSM/I-SSMIS Passive Microwave Data, Version 1 2017-09-27
314 [KOPRI-KPDC-00000933]Sea Ice Concentrations from Nimbus-7 SMMR and DMSP SSM/I-SSMIS Passive Microwave Data, Version 1 2017-09-27
315 [KOPRI-KPDC-00000932]Sea Ice Concentrations from Nimbus-7 SMMR and DMSP SSM/I-SSMIS Passive Microwave Data, Version 1 2017-09-27
316 [KOPRI-KPDC-00000931]Sea Ice Concentrations from Nimbus-7 SMMR and DMSP SSM/I-SSMIS Passive Microwave Data, Version 1 2017-09-27
317 [KOPRI-KPDC-00000930]Sea Ice Concentrations from Nimbus-7 SMMR and DMSP SSM/I-SSMIS Passive Microwave Data, Version 1 2017-09-27
318 [KOPRI-KPDC-00000929]Sea Ice Concentrations from Nimbus-7 SMMR and DMSP SSM/I-SSMIS Passive Microwave Data, Version 1 2017-09-27
319 [KOPRI-KPDC-00000928]Sea Ice Concentrations from Nimbus-7 SMMR and DMSP SSM/I-SSMIS Passive Microwave Data, Version 1 2017-09-27
320 [KOPRI-KPDC-00000927]Sea Ice Concentrations from Nimbus-7 SMMR and DMSP SSM/I-SSMIS Passive Microwave Data, Version 1 2017-09-27
321 [KOPRI-KPDC-00000758]Crystal structure and functional characterization of an isoaspartyl dipeptidase (CpsIadA) from Colwellia psychrerythraea strain 34H 2017-09-26
322 [KOPRI-KPDC-00000942]Moderate Resolution Imaging Spectroradiometer in Antarctic (MODIS) / Aqua, 2016 2017-09-22
323 [KOPRI-KPDC-00000941]Moderate Resolution Imaging Spectroradiometer in Arctic (MODIS) / Aqua, 2016 2017-09-22
324 [KOPRI-KPDC-00000940]Moderate Resolution Imaging Spectroradiometer in Korea (MODIS) / Aqua, 2014 2017-09-22
325 [KOPRI-KPDC-00000939]Moderate Resolution Imaging Spectroradiometer in Korea (MODIS) / Aqua, 2015 2017-09-22
326 [KOPRI-KPDC-00000756]Gravity cores from Antarctic Weddell Sea(JV10-GC01) 2017-09-18
327 [KOPRI-KPDC-00000749]NIWA oceanographic mooring data in the Drygalski Ice Tongue North 2016 2017-04-26
328 [KOPRI-KPDC-00000669]ARA07C Multi-Channel Seismic Survey Lines 2016-11-01
329 [KOPRI-KPDC-00000667]Temporal variation of phytoplankton in the surface water of Marian Cove, King George Island, Antarctica, September 2015-August 2016 2016-10-31
330 [KOPRI-KPDC-00000665]RV Helmer Hanssen 2016 Cruise into Fjorden, Svalbard 2016-10-28
331 [KOPRI-KPDC-00000661]Sub-bottom profiler data in the Ross Sea, Antarctica 2016 2016-10-27
332 [KOPRI-KPDC-00000659]Mltibeam data of around Ross Sea, Antarctic ocean, March, 2016 2016-10-27
333 [KOPRI-KPDC-00000662]CTD data in the Adare Trough in 2016 2016-10-27
334 [KOPRI-KPDC-00000655]Temporal variation of marine phytoplankton in the surface water of the Antarctic Jang Bogo Station in Terra Nova Bay, September 2015-August 2016 2016-10-26
335 [KOPRI-KPDC-00000645]Gravity cores from Antarctic Ross Sea(RS15-GC102). 2016-10-24
336 [KOPRI-KPDC-00000646]Gravity cores from Antarctic Ross Sea(RS15-GC107). 2016-10-24
337 [KOPRI-KPDC-00000634]CTD data to observe Circumpolar Deep Water (CDW) in the Amundsen Sea in 2015/2016. 2016-10-24
338 [KOPRI-KPDC-00000642]Sea surface temperature at the Marian Cove, King George Island, Antactica in 2016 2016-10-24
339 [KOPRI-KPDC-00000635]LADCP data to observe current of Circumpolar Deep Water (CDW) in the Amundsen Sea in 2015/2016. 2016-10-24
340 [KOPRI-KPDC-00000636]Mooring data in the Amundsen Sea from 2014 to 2016. 2016-10-24
341 [KOPRI-KPDC-00000649]Chlorophyll-a concentration from the Amundsen Sea, Antarctica, 2016 2016-10-24
342 [KOPRI-KPDC-00000644]Gravity cores from Antarctic Ross Sea(RS15-GC101). 2016-10-24
343 [KOPRI-KPDC-00000647]Long cores from Antarctic Ross Sea(RS15-LC100). 2016-10-24
344 [KOPRI-KPDC-00000648]Long cores from Antarctic Ross Sea(RS15-LC108). 2016-10-24
345 [KOPRI-KPDC-00000630]EK60 Data in Amundsen Sea, Antarctic in 2016 2016-10-22
346 [KOPRI-KPDC-00000629]Dissolved organic carbon and nitrogen data in the Amundsen Sea in 2016 2016-10-20
347 [KOPRI-KPDC-00000618]Soil and Fresh/Sea water samples from Barton Peninsular collected in 2015-2016 2016-10-13
348 [KOPRI-KPDC-00000615]Pyrolysis GC/MS data of soil organic matter from glacier foreland of Midtre Lovénbreen, Svalbard 2016-05-09
349 [KOPRI-PAMC-00022011]PAMC 28766 2016-03-17
350 [KOPRI-PAMC-00022010]PAMC 28756 2016-03-17
351 [KOPRI-PAMC-00022009]PAMC 28711 2016-03-17
352 [KOPRI-PAMC-00022008]PAMC 28707 2016-03-17
353 [KOPRI-PAMC-00022007]PAMC 28705 2016-03-17
354 [KOPRI-PAMC-00022006]PAMC 28687 2016-03-17
355 [KOPRI-KPDC-00000601]Depth profiles of temperature and salinity in the Ross Sea, Antarctica, in December 2015 2016-02-18
356 [KOPRI-PAMC-00022005]PAMC 28621 2015-12-29
357 [KOPRI-PAMC-00022004]PAMC 28620 2015-12-29
358 [KOPRI-PAMC-00022003]PAMC 28619 2015-12-29
359 [KOPRI-PAMC-00022002]PAMC 28618 2015-12-29
360 [KOPRI-PAMC-00022001]PAMC 28617 2015-12-29
361 [KOPRI-PAMC-00022000]PAMC 28616 2015-12-29
362 [KOPRI-PAMC-00021999]PAMC 28615 2015-12-29
363 [KOPRI-PAMC-00021998]PAMC 28614 2015-12-29
364 [KOPRI-PAMC-00021997]PAMC 28486 2015-12-28
365 [KOPRI-PAMC-00021996]PAMC 28484 2015-12-28
366 [KOPRI-PAMC-00021995]PAMC 28483 2015-12-28
367 [KOPRI-PAMC-00021994]PAMC 28482 2015-12-28
368 [KOPRI-PAMC-00021993]PAMC 28481 2015-12-28
369 [KOPRI-PAMC-00021992]PAMC 28479 2015-12-28
370 [KOPRI-PAMC-00021991]PAMC 28478 2015-12-28
371 [KOPRI-PAMC-00021990]PAMC 28477 2015-12-28
372 [KOPRI-PAMC-00021989]PAMC 28476 2015-12-28
373 [KOPRI-PAMC-00021988]PAMC 28475 2015-12-28
374 [KOPRI-PAMC-00021987]PAMC 28474 2015-12-28
375 [KOPRI-PAMC-00021986]PAMC 28473 2015-12-28
376 [KOPRI-PAMC-00021985]PAMC 28472 2015-12-28
377 [KOPRI-PAMC-00021984]PAMC 28471 2015-12-28
378 [KOPRI-PAMC-00021983]PAMC 28470 2015-12-28
379 [KOPRI-PAMC-00021982]PAMC 28468 2015-12-28
380 [KOPRI-PAMC-00021981]PAMC 28467 2015-12-28
381 [KOPRI-PAMC-00021980]PAMC 28466 2015-12-28
382 [KOPRI-PAMC-00021979]PAMC 28465 2015-12-28
383 [KOPRI-PAMC-00021978]PAMC 28464 2015-12-28
384 [KOPRI-PAMC-00021977]PAMC 28463 2015-12-28
385 [KOPRI-PAMC-00021976]PAMC 28461 2015-12-28
386 [KOPRI-PAMC-00021975]PAMC 28460 2015-12-28
387 [KOPRI-PAMC-00021974]PAMC 28459 2015-12-28
388 [KOPRI-PAMC-00021973]PAMC 28458 2015-12-28
389 [KOPRI-PAMC-00021972]PAMC 28457 2015-12-28
390 [KOPRI-PAMC-00021971]PAMC 28456 2015-12-28
391 [KOPRI-PAMC-00021970]PAMC 28453 2015-12-28
392 [KOPRI-PAMC-00021969]PAMC 28450 2015-12-28
393 [KOPRI-PAMC-00021968]PAMC 28447 2015-12-28
394 [KOPRI-PAMC-00021967]PAMC 28446 2015-12-28
395 [KOPRI-PAMC-00021966]PAMC 28445 2015-12-28
396 [KOPRI-PAMC-00021965]PAMC 28444 2015-12-28
397 [KOPRI-PAMC-00021964]PAMC 28443 2015-12-28
398 [KOPRI-PAMC-00021963]PAMC 28442 2015-12-28
399 [KOPRI-PAMC-00021962]PAMC 28441 2015-12-28
400 [KOPRI-PAMC-00021961]PAMC 28439 2015-12-28